Accueil
METAR-TAF:

METAR-TAF

Aéroports :

Aéroport de Trapani

Trapani, Italie

latitude: 37-55N, longitude: 012-30E, altitude: 7 m

Observation

Le bulletin a été fait il y a 15 minutes, à 21:55 UTC
Vent 13 kt de nord-ouest
Température 14°C
Humidité 67%
Pression 1007 hPa
Visibilité 10 km ou plus
Quelques nuages à une hauteur de 2000 ft

METAR: LICT 032155Z 31013KT 9999 FEW020 14/08 Q1007

Heure: 23:10 (22:10 UTC)

Prévision

Le bulletin a été fait il y a 2 heures et 10 minutes, à 20:00 UTC
Prévision valable du 03 à 21 UTC au 04 à 06 UTC
Vent 15 kt de nord-ouest
Visibilité 10 km ou plus
Quelques nuages à une hauteur de 2000 ft
Temporairement
du 04 à 02 UTC au 04 à 04 UTC
Vent 5 kt de sud/sud-ouest

TAF: LICT 032000Z 0321/0406 31015KT 9999 FEW020 TEMPO 0402/0404 20005KT

Observations et prévisions météorologiques de plus de 4000 aéroports (messages METAR et TAF).

Les stations disponibles sont représentées par des disques jaunes et rouges sur la carte.

Passer la souris dessus pour voir le nom de la station.

Cliquer dessus pour voir les observations et prévisions météorologiques.

Pour changer de carte: cliquez sur les boutons verts avec une croix noire pour zoomer, sur le bouton vert avec un tiret pour effectuer un zoom arrière, ou sur les flèches vertes pour les cartes adjacentes.


METAR-TAF: